Kissimmee Gateway Airport Orlando US
ICAO: KISM
IATA: ISM
Category: Medium
Scheduled Services: No

Elevation: 82 ft
TransAlt. 18000 ft.

Airport Communications:
ORLANDO APP/DEP:119.4
AWOS 3:128.775
ORLANDO CLNC DEL:119.95
CTAF:124.45
GND:121.7
TWR:124.45
UNICOM:122.95

KISM Zoom In..

Runways:

(A) RW 06 length 5001 ft width 150 ft
---- / hdg 63

(B) RW 15 length 6001 ft width 100 ft
ILS 109.75 / hdg 153

(C) RW 24 length 5001 ft width 150 ft
---- / hdg 243

(D) RW 33 length 6001 ft width 100 ft
---- / hdg 333

Location; KISM
Day. 25 / Time. 09.56 Zulu
* Altimeter: 29.94
* Temperature: 16° c. 60.8°f.
* Wind from: 280° Speed 04 kn.
Dewpoint: 14° c.
Visibility: 10 Statute Miles.
Clouds: Clear (automated report).

KISM 250956Z AUTO 28004KT 10SM CLR 16/14 A2994 RMK AO2 SLP142 T01560144


Wind From 280°
Speed 04 kn.

  YouTube Music Video
 
jpsmedia.com for Web Design  worldairports.se 2018   terms of use